Airfield :
LOGIN :

Register | Disclaimer

   EN    FR    IT 

 










Legend :    VFR   Marginal VFR   IFR   Intensive IFR   Very Intensive IFR
Visi :
Ceiling :
>= 8 km
>= 3000ft
5 to 8 km
1000 to 3000 ft
1500m to 5 km
500 to 1000 ft
800 to 1500m
200 to 500 ft
< 800m
< 200 ft
Symbols :   Thunderstorms  Fog  Heavy snow  Heavy precipitations  Wind > 20 kt
SIGMETs :     Misc.  Thunderstorms  Icing  Turbulence  Mountain Waves  Volcanic Ashes







- Airport Elevation : 28 ft
- IATA code : OLA


ENOL - Ørland

CURRENT METAR :
  • 211120Z 28025KT 9999 FEW030 07/01 Q1014 TEMPO 26035G45KT

EXPIRED METARs :
  • 211050Z 27028G38KT 9999 FEW030 06/00 Q1014 NOSIG
  • 211020Z 27027G37KT 9999 FEW015TCU FEW025 07/01 Q1013 TEMPO 26035G45KT
  • 210950Z 27024KT 9999 FEW015TCU FEW025 06/02 Q1012 TEMPO 26035G45KT
  • 210920Z 28025KT 9999 VCSH FEW015TCU SCT025 06/02 Q1012 TEMPO 26035G48KT SHRA BKN014TCU
  • 210850Z 27024G35KT 9999 VCSH FEW015TCU SCT025 06/03 Q1011 TEMPO 26035G48KT SHRA BKN014TCU

TAF TAF ENOL
Valid from the 21 at 06:00 until the 22 at 06:00 UTC


2106/2206 26025G38KT 9999 -SHRA FEW015 BKN025
TEMPO 2106/2112 26035G48KT SHRA BKN014TCU
BECMG 2115/2118 28015KT
TEMPO 2118/2201 SHRA BKN014CB
BECMG 2118/2121 21008KT
BECMG 2203/2206 15015KT
No reported NOTAMs for that airfield.
6 SIGMETs reported for the Norway FIR (ENOR) :
 
SIGMET A0 cancelation
ENOS SIGMET A05 VALID 211106/211200 ENMI
ENOR NORWAY FIR CNL SIGMET A03 210800/211200=
Severe mountain waves
ENOS SIGMET A04 VALID 211105/211500 ENMI
ENOR NORWAY FIR SEV MTW FCST WI N5845 E00730 - N6200 E00730 - N6200 E01100 - N5900 E00900 - N5845 E00730 SFC/FL380 STNR WKN=
Severe mountain waves
ENOS SIGMET A03 VALID 210800/211200 ENMI
ENOR NORWAY FIR SEV MTW FCST WI N5845 E00730 - N6200 E00730 - N6200 E01030 - N5900 E00900 - N5845 E00730 SFC/FL260 STNR NC=
Severe mountain waves
ENBD SIGMET D03 VALID 211100/211500 ENVN
ENOR NORWAY FIR SEV MTW FCST WI N6500 E01125 - N6740 E01155 - N6930 E01600 - N6815 E01820 - N6500 E01430 - N6500 E01125 SFC/FL400 MOV NNE 20KT NC=
Severe mountain waves
ENBD SIGMET C05 VALID 211120/211500 ENVV
ENOR NORWAY FIR SEV MTW FCST WI N6200 E00730 - N6300 E01200 - N6200 E01100 - N6200 E00730 SFC/FL380 STNR WKN=
Severe turbulence
ENBD SIGMET C04 VALID 210800/211200 ENVV
ENOR NORWAY FIR SEV TURB FCST WI N6400 E00945 - N6500 E01130 - N6500 E01415 - N6400 E01400 - N6330 E01200 - N6400 E00945 SFC/FL070 STNR WKN=



MET'MAP, your aeronautical weather chart ! - Copyright ORBIFLY December 2007 - Disclaimer

ORBIFLY MET'MAP TEAM :

Programming & Development : Alexandra Zaïnal
Concept & Development : Baudouin d'Aumeries
Co-Development & Prog : Marc-Olivier Méhu
Technical & hardware support : Manuel Goepfert

Contact : metmap@orbifly.com




SOURCES & CREDITS :

   NOAA